sensor_id;sensor_type;location;lat;lon;timestamp;pressure;altitude;pressure_sealevel;temperature
62932;BMP280;49037;41.898;25.004;2022-12-20T00:01:10;98402.44;;;-1.58
62932;BMP280;49037;41.898;25.004;2022-12-20T00:03:36;98419.97;;;-1.55
62932;BMP280;49037;41.898;25.004;2022-12-20T00:06:02;98404.66;;;-1.57
62932;BMP280;49037;41.898;25.004;2022-12-20T00:08:27;98426.22;;;-1.46
62932;BMP280;49037;41.898;25.004;2022-12-20T00:10:53;98413.25;;;-1.56
62932;BMP280;49037;41.898;25.004;2022-12-20T00:13:18;98424.78;;;-1.50
62932;BMP280;49037;41.898;25.004;2022-12-20T00:15:44;98421.72;;;-1.45
62932;BMP280;49037;41.898;25.004;2022-12-20T00:18:09;98419.16;;;-1.49
62932;BMP280;49037;41.898;25.004;2022-12-20T00:20:35;98411.41;;;-1.56
62932;BMP280;49037;41.898;25.004;2022-12-20T00:23:06;98422.50;;;-1.48
62932;BMP280;49037;41.898;25.004;2022-12-20T00:25:31;98428.97;;;-1.56
62932;BMP280;49037;41.898;25.004;2022-12-20T00:27:57;98417.84;;;-1.64
62932;BMP280;49037;41.898;25.004;2022-12-20T00:30:22;98417.50;;;-1.66
62932;BMP280;49037;41.898;25.004;2022-12-20T00:32:48;98416.81;;;-1.70
62932;BMP280;49037;41.898;25.004;2022-12-20T00:35:32;98400.88;;;-1.82
62932;BMP280;49037;41.898;25.004;2022-12-20T00:37:57;98410.28;;;-1.92
62932;BMP280;49037;41.898;25.004;2022-12-20T00:40:22;98415.66;;;-2.02
62932;BMP280;49037;41.898;25.004;2022-12-20T00:42:48;98414.13;;;-1.99
62932;BMP280;49037;41.898;25.004;2022-12-20T00:45:13;98396.34;;;-2.11
62932;BMP280;49037;41.898;25.004;2022-12-20T00:47:39;98396.78;;;-2.20
62932;BMP280;49037;41.898;25.004;2022-12-20T00:50:05;98404.31;;;-2.25
62932;BMP280;49037;41.898;25.004;2022-12-20T00:52:30;98403.25;;;-2.31
62932;BMP280;49037;41.898;25.004;2022-12-20T00:54:56;98388.38;;;-2.38
62932;BMP280;49037;41.898;25.004;2022-12-20T00:57:21;98387.66;;;-2.42
62932;BMP280;49037;41.898;25.004;2022-12-20T00:59:54;98381.25;;;-2.37
62932;BMP280;49037;41.898;25.004;2022-12-20T01:02:22;98387.25;;;-2.40
62932;BMP280;49037;41.898;25.004;2022-12-20T01:04:48;98373.06;;;-2.39
62932;BMP280;49037;41.898;25.004;2022-12-20T01:07:14;98372.56;;;-2.27
62932;BMP280;49037;41.898;25.004;2022-12-20T01:09:39;98386.72;;;-2.25
62932;BMP280;49037;41.898;25.004;2022-12-20T01:12:05;98364.56;;;-2.50
62932;BMP280;49037;41.898;25.004;2022-12-20T01:14:30;98368.25;;;-2.44
62932;BMP280;49037;41.898;25.004;2022-12-20T01:16:56;98367.44;;;-2.38
62932;BMP280;49037;41.898;25.004;2022-12-20T01:19:21;98349.19;;;-2.45
62932;BMP280;49037;41.898;25.004;2022-12-20T01:21:47;98349.94;;;-2.44
62932;BMP280;49037;41.898;25.004;2022-12-20T01:24:13;98364.47;;;-2.40
62932;BMP280;49037;41.898;25.004;2022-12-20T01:26:46;98348.06;;;-2.44
62932;BMP280;49037;41.898;25.004;2022-12-20T01:29:12;98347.34;;;-2.44
62932;BMP280;49037;41.898;25.004;2022-12-20T01:31:38;98350.97;;;-2.35
62932;BMP280;49037;41.898;25.004;2022-12-20T01:34:04;98336.88;;;-2.44
62932;BMP280;49037;41.898;25.004;2022-12-20T01:36:33;98337.59;;;-2.44
62932;BMP280;49037;41.898;25.004;2022-12-20T01:39:11;98322.81;;;-2.57
62932;BMP280;49037;41.898;25.004;2022-12-20T01:41:38;98330.97;;;-2.52
62932;BMP280;49037;41.898;25.004;2022-12-20T01:44:47;98301.50;;;-2.59
62932;BMP280;49037;41.898;25.004;2022-12-20T01:46:52;98314.59;;;-2.55
62932;BMP280;49037;41.898;25.004;2022-12-20T01:51:52;98310.47;;;-2.56
62932;BMP280;49037;41.898;25.004;2022-12-20T01:54:24;98320.88;;;-2.50
62932;BMP280;49037;41.898;25.004;2022-12-20T01:56:55;98310.47;;;-2.60
62932;BMP280;49037;41.898;25.004;2022-12-20T01:59:22;98323.53;;;-2.53
62932;BMP280;49037;41.898;25.004;2022-12-20T02:01:48;98309.81;;;-2.67
62932;BMP280;49037;41.898;25.004;2022-12-20T02:04:13;98323.91;;;-2.54
62932;BMP280;49037;41.898;25.004;2022-12-20T02:06:39;98309.03;;;-2.61
62932;BMP280;49037;41.898;25.004;2022-12-20T02:09:05;98317.94;;;-2.55
62932;BMP280;49037;41.898;25.004;2022-12-20T02:14:35;98306.75;;;-2.59
62932;BMP280;49037;41.898;25.004;2022-12-20T02:28:05;98286.41;;;-2.78
62932;BMP280;49037;41.898;25.004;2022-12-20T02:30:38;98294.19;;;-2.71
62932;BMP280;49037;41.898;25.004;2022-12-20T02:33:10;98281.94;;;-2.77
62932;BMP280;49037;41.898;25.004;2022-12-20T02:35:37;98288.31;;;-2.82
62932;BMP280;49037;41.898;25.004;2022-12-20T02:38:27;98294.59;;;-2.76
62932;BMP280;49037;41.898;25.004;2022-12-20T02:40:58;98296.03;;;-2.71
62932;BMP280;49037;41.898;25.004;2022-12-20T02:43:27;98275.28;;;-2.85
62932;BMP280;49037;41.898;25.004;2022-12-20T02:46:12;98293.47;;;-2.75
62932;BMP280;49037;41.898;25.004;2022-12-20T02:48:39;98285.72;;;-2.85
62932;BMP280;49037;41.898;25.004;2022-12-20T02:51:06;98293.91;;;-2.80
62932;BMP280;49037;41.898;25.004;2022-12-20T02:53:33;98288.28;;;-2.78
62932;BMP280;49037;41.898;25.004;2022-12-20T02:56:07;98281.25;;;-2.88
62932;BMP280;49037;41.898;25.004;2022-12-20T02:58:42;98289.03;;;-2.81
62932;BMP280;49037;41.898;25.004;2022-12-20T03:01:17;98281.16;;;-2.78
62932;BMP280;49037;41.898;25.004;2022-12-20T03:03:44;98285.75;;;-2.89
62932;BMP280;49037;41.898;25.004;2022-12-20T03:06:13;98283.91;;;-2.92
62932;BMP280;49037;41.898;25.004;2022-12-20T03:08:38;98274.22;;;-2.95
62932;BMP280;49037;41.898;25.004;2022-12-20T03:11:05;98279.38;;;-2.88
62932;BMP280;49037;41.898;25.004;2022-12-20T03:13:30;98278.28;;;-2.90
62932;BMP280;49037;41.898;25.004;2022-12-20T03:15:56;98272.75;;;-2.96
62932;BMP280;49037;41.898;25.004;2022-12-20T03:18:21;98281.28;;;-2.92
62932;BMP280;49037;41.898;25.004;2022-12-20T03:20:46;98265.28;;;-2.97
62932;BMP280;49037;41.898;25.004;2022-12-20T03:23:12;98276.75;;;-2.88
62932;BMP280;49037;41.898;25.004;2022-12-20T03:25:38;98284.69;;;-2.95
62932;BMP280;49037;41.898;25.004;2022-12-20T03:28:03;98278.28;;;-2.90
62932;BMP280;49037;41.898;25.004;2022-12-20T03:30:29;98270.50;;;-2.94
62932;BMP280;49037;41.898;25.004;2022-12-20T03:32:54;98270.91;;;-2.99
62932;BMP280;49037;41.898;25.004;2022-12-20T03:35:20;98259.75;;;-3.03
62932;BMP280;49037;41.898;25.004;2022-12-20T03:37:45;98277.94;;;-2.92
62932;BMP280;49037;41.898;25.004;2022-12-20T03:40:11;98282.38;;;-2.89
62932;BMP280;49037;41.898;25.004;2022-12-20T03:42:37;98279.09;;;-2.97
62932;BMP280;49037;41.898;25.004;2022-12-20T03:45:03;98288.72;;;-2.87
62932;BMP280;49037;41.898;25.004;2022-12-20T03:47:29;98289.50;;;-2.90
62932;BMP280;49037;41.898;25.004;2022-12-20T03:49:54;98291.72;;;-2.85
62932;BMP280;49037;41.898;25.004;2022-12-20T03:52:19;98291.00;;;-2.92
62932;BMP280;49037;41.898;25.004;2022-12-20T03:54:45;98300.69;;;-2.86
62932;BMP280;49037;41.898;25.004;2022-12-20T03:57:10;98299.56;;;-2.92
62932;BMP280;49037;41.898;25.004;2022-12-20T03:59:36;98301.84;;;-2.94
62932;BMP280;49037;41.898;25.004;2022-12-20T04:02:02;98289.91;;;-2.95
62932;BMP280;49037;41.898;25.004;2022-12-20T04:04:27;98279.19;;;-3.04
62932;BMP280;49037;41.898;25.004;2022-12-20T04:06:53;98279.91;;;-3.03
62932;BMP280;49037;41.898;25.004;2022-12-20T04:09:18;98288.50;;;-3.03
62932;BMP280;49037;41.898;25.004;2022-12-20T04:11:44;98290.69;;;-2.98
62932;BMP280;49037;41.898;25.004;2022-12-20T04:14:09;98288.13;;;-3.05
62932;BMP280;49037;41.898;25.004;2022-12-20T04:16:37;98285.13;;;-3.03
62932;BMP280;49037;41.898;25.004;2022-12-20T04:19:02;98290.38;;;-3.07
62932;BMP280;49037;41.898;25.004;2022-12-20T04:21:30;98289.72;;;-3.14
62932;BMP280;49037;41.898;25.004;2022-12-20T04:23:56;98303.88;;;-3.12
62932;BMP280;49037;41.898;25.004;2022-12-20T04:26:22;98304.63;;;-3.18
62932;BMP280;49037;41.898;25.004;2022-12-20T04:28:49;98288.34;;;-3.32
62932;BMP280;49037;41.898;25.004;2022-12-20T04:31:15;98301.72;;;-3.27
62932;BMP280;49037;41.898;25.004;2022-12-20T04:33:40;98291.56;;;-3.18
62932;BMP280;49037;41.898;25.004;2022-12-20T04:36:06;98282.66;;;-3.21
62932;BMP280;49037;41.898;25.004;2022-12-20T04:38:32;98281.13;;;-3.18
62932;BMP280;49037;41.898;25.004;2022-12-20T04:40:57;98285.88;;;-3.03
62932;BMP280;49037;41.898;25.004;2022-12-20T04:43:23;98282.91;;;-3.05
62932;BMP280;49037;41.898;25.004;2022-12-20T04:45:51;98285.16;;;-3.07
62932;BMP280;49037;41.898;25.004;2022-12-20T04:48:18;98272.94;;;-3.17
62932;BMP280;49037;41.898;25.004;2022-12-20T04:50:50;98287.72;;;-3.00
62932;BMP280;49037;41.898;25.004;2022-12-20T04:53:16;98271.78;;;-3.12
62932;BMP280;49037;41.898;25.004;2022-12-20T04:56:00;98281.88;;;-3.18
62932;BMP280;49037;41.898;25.004;2022-12-20T04:58:25;98290.34;;;-3.03
62932;BMP280;49037;41.898;25.004;2022-12-20T05:00:52;98286.25;;;-3.04
62932;BMP280;49037;41.898;25.004;2022-12-20T05:03:21;98288.91;;;-3.08
62932;BMP280;49037;41.898;25.004;2022-12-20T05:05:46;98288.91;;;-3.08
62932;BMP280;49037;41.898;25.004;2022-12-20T05:08:12;98271.81;;;-3.16
62932;BMP280;49037;41.898;25.004;2022-12-20T05:10:38;98259.91;;;-3.23
62932;BMP280;49037;41.898;25.004;2022-12-20T05:13:03;98279.19;;;-3.04
62932;BMP280;49037;41.898;25.004;2022-12-20T05:15:29;98262.13;;;-3.15
62932;BMP280;49037;41.898;25.004;2022-12-20T05:17:54;98280.69;;;-3.06
62932;BMP280;49037;41.898;25.004;2022-12-20T05:20:25;98263.19;;;-3.09
62932;BMP280;49037;41.898;25.004;2022-12-20T05:22:50;98269.53;;;-3.10
62932;BMP280;49037;41.898;25.004;2022-12-20T05:25:36;98263.56;;;-3.11
62932;BMP280;49037;41.898;25.004;2022-12-20T05:28:34;98255.81;;;-3.24
62932;BMP280;49037;41.898;25.004;2022-12-20T05:31:03;98247.63;;;-3.26
62932;BMP280;49037;41.898;25.004;2022-12-20T05:33:28;98268.78;;;-3.11
62932;BMP280;49037;41.898;25.004;2022-12-20T05:35:54;98257.69;;;-3.25
62932;BMP280;49037;41.898;25.004;2022-12-20T05:38:23;98241.34;;;-3.32
62932;BMP280;49037;41.898;25.004;2022-12-20T05:40:51;98255.53;;;-3.33
62932;BMP280;49037;41.898;25.004;2022-12-20T05:43:17;98266.63;;;-3.22
62932;BMP280;49037;41.898;25.004;2022-12-20T05:45:51;98251.75;;;-3.29
62932;BMP280;49037;41.898;25.004;2022-12-20T05:48:18;98260.38;;;-3.32
62932;BMP280;49037;41.898;25.004;2022-12-20T05:50:45;98258.47;;;-3.28
62932;BMP280;49037;41.898;25.004;2022-12-20T05:53:12;98265.94;;;-3.26
62932;BMP280;49037;41.898;25.004;2022-12-20T05:55:42;98256.97;;;-3.25
62932;BMP280;49037;41.898;25.004;2022-12-20T05:58:07;98269.59;;;-3.21
62932;BMP280;49037;41.898;25.004;2022-12-20T06:00:33;98266.25;;;-3.21
62932;BMP280;49037;41.898;25.004;2022-12-20T06:02:59;98251.06;;;-3.33
62932;BMP280;49037;41.898;25.004;2022-12-20T06:05:24;98252.91;;;-3.33
62932;BMP280;49037;41.898;25.004;2022-12-20T06:07:50;98250.97;;;-3.22
62932;BMP280;49037;41.898;25.004;2022-12-20T06:10:15;98262.84;;;-3.15
62932;BMP280;49037;41.898;25.004;2022-12-20T06:12:41;98270.25;;;-3.10
62932;BMP280;49037;41.898;25.004;2022-12-20T06:15:09;98264.63;;;-3.05
62932;BMP280;49037;41.898;25.004;2022-12-20T06:17:35;98263.81;;;-2.98
62932;BMP280;49037;41.898;25.004;2022-12-20T06:20:00;98242.59;;;-3.04
62932;BMP280;49037;41.898;25.004;2022-12-20T06:22:26;98264.09;;;-2.89
62932;BMP280;49037;41.898;25.004;2022-12-20T06:24:51;98258.16;;;-2.93
62932;BMP280;49037;41.898;25.004;2022-12-20T06:27:17;98265.22;;;-2.87
62932;BMP280;49037;41.898;25.004;2022-12-20T06:29:42;98255.16;;;-2.92
62932;BMP280;49037;41.898;25.004;2022-12-20T06:32:16;98264.91;;;-2.96
62932;BMP280;49037;41.898;25.004;2022-12-20T06:34:41;98261.94;;;-2.98
62932;BMP280;49037;41.898;25.004;2022-12-20T06:37:07;98270.09;;;-2.92
62932;BMP280;49037;41.898;25.004;2022-12-20T06:39:32;98253.03;;;-3.04
62932;BMP280;49037;41.898;25.004;2022-12-20T06:41:58;98269.44;;;-3.00
62932;BMP280;49037;41.898;25.004;2022-12-20T06:44:23;98275.34;;;-2.96
62932;BMP280;49037;41.898;25.004;2022-12-20T06:46:48;98267.09;;;-2.91
62932;BMP280;49037;41.898;25.004;2022-12-20T06:49:14;98270.81;;;-2.88
62932;BMP280;49037;41.898;25.004;2022-12-20T06:51:39;98257.47;;;-2.97
62932;BMP280;49037;41.898;25.004;2022-12-20T06:54:05;98259.66;;;-2.92
62932;BMP280;49037;41.898;25.004;2022-12-20T06:56:30;98268.09;;;-2.78
62932;BMP280;49037;41.898;25.004;2022-12-20T06:58:56;98269.22;;;-2.79
62932;BMP280;49037;41.898;25.004;2022-12-20T07:01:21;98273.66;;;-2.72
62932;BMP280;49037;41.898;25.004;2022-12-20T07:03:47;98276.63;;;-2.70
62932;BMP280;49037;41.898;25.004;2022-12-20T07:06:12;98261.28;;;-2.68
62932;BMP280;49037;41.898;25.004;2022-12-20T07:08:37;98271.75;;;-2.68
62932;BMP280;49037;41.898;25.004;2022-12-20T07:11:07;98264.72;;;-2.75
62932;BMP280;49037;41.898;25.004;2022-12-20T07:13:33;98256.09;;;-2.72
62932;BMP280;49037;41.898;25.004;2022-12-20T07:16:00;98252.00;;;-2.73
62932;BMP280;49037;41.898;25.004;2022-12-20T07:18:25;98242.31;;;-2.76
62932;BMP280;49037;41.898;25.004;2022-12-20T07:20:51;98258.34;;;-2.74
62932;BMP280;49037;41.898;25.004;2022-12-20T07:23:17;98249.41;;;-2.76
62932;BMP280;49037;41.898;25.004;2022-12-20T07:25:43;98249.09;;;-2.82
62932;BMP280;49037;41.898;25.004;2022-12-20T07:28:08;98269.16;;;-2.72
62932;BMP280;49037;41.898;25.004;2022-12-20T07:30:34;98251.38;;;-2.84
62932;BMP280;49037;41.898;25.004;2022-12-20T07:32:59;98254.91;;;-2.67
62932;BMP280;49037;41.898;25.004;2022-12-20T07:35:25;98251.97;;;-2.69
62932;BMP280;49037;41.898;25.004;2022-12-20T07:37:51;98241.63;;;-2.80
62932;BMP280;49037;41.898;25.004;2022-12-20T07:40:16;98253.13;;;-2.74
62932;BMP280;49037;41.898;25.004;2022-12-20T07:42:41;98260.22;;;-2.74
62932;BMP280;49037;41.898;25.004;2022-12-20T07:45:07;98242.72;;;-2.77
62932;BMP280;49037;41.898;25.004;2022-12-20T07:47:33;98255.97;;;-2.61
62932;BMP280;49037;41.898;25.004;2022-12-20T07:50:00;98249.94;;;-2.58
62932;BMP280;49037;41.898;25.004;2022-12-20T07:52:26;98248.84;;;-2.57
62932;BMP280;49037;41.898;25.004;2022-12-20T07:54:54;98254.13;;;-2.61
62932;BMP280;49037;41.898;25.004;2022-12-20T07:57:25;98249.31;;;-2.66
62932;BMP280;49037;41.898;25.004;2022-12-20T07:59:55;98251.84;;;-2.55
62932;BMP280;49037;41.898;25.004;2022-12-20T08:02:27;98248.09;;;-2.58
62932;BMP280;49037;41.898;25.004;2022-12-20T08:04:55;98251.09;;;-2.59
62932;BMP280;49037;41.898;25.004;2022-12-20T08:07:21;98245.47;;;-2.54
62932;BMP280;49037;41.898;25.004;2022-12-20T08:09:47;98240.97;;;-2.54
62932;BMP280;49037;41.898;25.004;2022-12-20T08:12:15;98229.44;;;-2.60
62932;BMP280;49037;41.898;25.004;2022-12-20T08:14:41;98250.28;;;-2.50
62932;BMP280;49037;41.898;25.004;2022-12-20T08:17:07;98249.13;;;-2.49
62932;BMP280;49037;41.898;25.004;2022-12-20T08:19:33;98233.81;;;-2.50
62932;BMP280;49037;41.898;25.004;2022-12-20T08:21:58;98230.81;;;-2.49
62932;BMP280;49037;41.898;25.004;2022-12-20T08:24:24;98225.94;;;-2.47
62932;BMP280;49037;41.898;25.004;2022-12-20T08:26:49;98222.53;;;-2.44
62932;BMP280;49037;41.898;25.004;2022-12-20T08:29:14;98223.97;;;-2.39
62932;BMP280;49037;41.898;25.004;2022-12-20T08:31:40;98226.44;;;-2.29
62932;BMP280;49037;41.898;25.004;2022-12-20T08:34:09;98218.59;;;-2.29
62932;BMP280;49037;41.898;25.004;2022-12-20T08:36:35;98221.91;;;-2.25
62932;BMP280;49037;41.898;25.004;2022-12-20T08:39:04;98215.59;;;-2.24
62932;BMP280;49037;41.898;25.004;2022-12-20T08:41:30;98212.22;;;-2.24
62932;BMP280;49037;41.898;25.004;2022-12-20T08:43:56;98207.72;;;-2.24
62932;BMP280;49037;41.898;25.004;2022-12-20T08:46:21;98213.94;;;-2.14
62932;BMP280;49037;41.898;25.004;2022-12-20T08:48:47;98192.31;;;-2.18
62932;BMP280;49037;41.898;25.004;2022-12-20T08:51:12;98199.97;;;-2.04
62932;BMP280;49037;41.898;25.004;2022-12-20T08:53:38;98194.06;;;-1.86
62932;BMP280;49037;41.898;25.004;2022-12-20T08:56:11;98192.94;;;-1.58
62932;BMP280;49037;41.898;25.004;2022-12-20T08:58:38;98193.63;;;-1.35
62932;BMP280;49037;41.898;25.004;2022-12-20T09:01:08;98182.22;;;-1.22
62932;BMP280;49037;41.898;25.004;2022-12-20T09:03:40;98194.72;;;-0.90
62932;BMP280;49037;41.898;25.004;2022-12-20T09:06:09;98188.41;;;-0.73
62932;BMP280;49037;41.898;25.004;2022-12-20T09:08:36;98197.72;;;-0.53
62932;BMP280;49037;41.898;25.004;2022-12-20T09:11:10;98192.84;;;-0.35
62932;BMP280;49037;41.898;25.004;2022-12-20T09:13:37;98177.56;;;-0.21
62932;BMP280;49037;41.898;25.004;2022-12-20T09:16:04;98185.94;;;0.06
62932;BMP280;49037;41.898;25.004;2022-12-20T09:18:30;98168.84;;;0.14
62932;BMP280;49037;41.898;25.004;2022-12-20T09:21:00;98177.34;;;0.50
62932;BMP280;49037;41.898;25.004;2022-12-20T09:23:26;98173.63;;;0.63
62932;BMP280;49037;41.898;25.004;2022-12-20T09:25:52;98171.28;;;0.81
62932;BMP280;49037;41.898;25.004;2022-12-20T09:28:17;98175.84;;;0.93
62932;BMP280;49037;41.898;25.004;2022-12-20T09:30:45;98169.47;;;1.06
62932;BMP280;49037;41.898;25.004;2022-12-20T09:33:10;98166.75;;;1.10
62932;BMP280;49037;41.898;25.004;2022-12-20T09:35:42;98163.09;;;1.19
62932;BMP280;49037;41.898;25.004;2022-12-20T09:38:08;98173.22;;;1.46
62932;BMP280;49037;41.898;25.004;2022-12-20T09:40:33;98172.69;;;1.51
62932;BMP280;49037;41.898;25.004;2022-12-20T09:43:01;98167.31;;;1.54
62932;BMP280;49037;41.898;25.004;2022-12-20T09:45:34;98167.44;;;1.63
62932;BMP280;49037;41.898;25.004;2022-12-20T09:48:00;98157.84;;;1.69
62932;BMP280;49037;41.898;25.004;2022-12-20T09:56:12;98143.41;;;1.49
62932;BMP280;49037;41.898;25.004;2022-12-20T10:01:21;98144.66;;;1.44
62932;BMP280;49037;41.898;25.004;2022-12-20T10:03:56;98135.84;;;1.76
62932;BMP280;49037;41.898;25.004;2022-12-20T10:06:37;98126.00;;;1.88
62932;BMP280;49037;41.898;25.004;2022-12-20T10:09:14;98115.47;;;1.88
62932;BMP280;49037;41.898;25.004;2022-12-20T10:14:41;98120.63;;;1.92
62932;BMP280;49037;41.898;25.004;2022-12-20T10:20:29;98106.59;;;2.29
62932;BMP280;49037;41.898;25.004;2022-12-20T10:25:55;98099.63;;;2.34
62932;BMP280;49037;41.898;25.004;2022-12-20T10:28:29;98089.19;;;2.31
62932;BMP280;49037;41.898;25.004;2022-12-20T10:31:15;98083.38;;;2.36
62932;BMP280;49037;41.898;25.004;2022-12-20T10:33:42;98077.25;;;2.18
62932;BMP280;49037;41.898;25.004;2022-12-20T10:36:29;98081.97;;;2.44
62932;BMP280;49037;41.898;25.004;2022-12-20T10:39:00;98081.47;;;2.58
62932;BMP280;49037;41.898;25.004;2022-12-20T10:41:31;98068.75;;;2.56
62932;BMP280;49037;41.898;25.004;2022-12-20T10:44:14;98072.09;;;2.14
62932;BMP280;49037;41.898;25.004;2022-12-20T10:46:45;98065.91;;;2.30
62932;BMP280;49037;41.898;25.004;2022-12-20T10:54:44;98041.53;;;2.17
62932;BMP280;49037;41.898;25.004;2022-12-20T10:59:44;98040.72;;;2.50
62932;BMP280;49037;41.898;25.004;2022-12-20T11:02:31;98051.28;;;2.50
62932;BMP280;49037;41.898;25.004;2022-12-20T11:05:21;98019.91;;;2.52
62932;BMP280;49037;41.898;25.004;2022-12-20T11:07:56;98006.19;;;2.57
62932;BMP280;49037;41.898;25.004;2022-12-20T11:10:28;98012.66;;;2.65
62932;BMP280;49037;41.898;25.004;2022-12-20T11:13:02;98004.75;;;2.56
62932;BMP280;49037;41.898;25.004;2022-12-20T11:15:31;98013.31;;;2.26
62932;BMP280;49037;41.898;25.004;2022-12-20T11:18:12;98010.19;;;2.40
62932;BMP280;49037;41.898;25.004;2022-12-20T11:23:45;98001.56;;;2.39
62932;BMP280;49037;41.898;25.004;2022-12-20T11:30:08;97994.25;;;2.01
62932;BMP280;49037;41.898;25.004;2022-12-20T11:35:29;97989.03;;;2.31
62932;BMP280;49037;41.898;25.004;2022-12-20T11:38:19;97991.69;;;2.61
62932;BMP280;49037;41.898;25.004;2022-12-20T11:48:53;97973.59;;;2.42
62932;BMP280;49037;41.898;25.004;2022-12-20T11:51:23;97955.47;;;2.23
62932;BMP280;49037;41.898;25.004;2022-12-20T11:54:00;97955.06;;;2.24
62932;BMP280;49037;41.898;25.004;2022-12-20T11:56:43;97960.75;;;2.01
62932;BMP280;49037;41.898;25.004;2022-12-20T12:02:21;97949.25;;;1.86
62932;BMP280;49037;41.898;25.004;2022-12-20T12:04:56;97951.44;;;2.09
62932;BMP280;49037;41.898;25.004;2022-12-20T12:11:13;97929.78;;;2.35
62932;BMP280;49037;41.898;25.004;2022-12-20T12:13:41;97926.31;;;2.17
62932;BMP280;49037;41.898;25.004;2022-12-20T12:16:19;97919.66;;;2.34
62932;BMP280;49037;41.898;25.004;2022-12-20T12:18:47;97922.97;;;2.47
62932;BMP280;49037;41.898;25.004;2022-12-20T12:21:22;97926.84;;;2.73
62932;BMP280;49037;41.898;25.004;2022-12-20T12:26:26;97928.84;;;2.51
62932;BMP280;49037;41.898;25.004;2022-12-20T12:28:56;97915.41;;;2.36
62932;BMP280;49037;41.898;25.004;2022-12-20T12:31:37;97917.69;;;2.47
62932;BMP280;49037;41.898;25.004;2022-12-20T12:43:07;97922.75;;;2.89
62932;BMP280;49037;41.898;25.004;2022-12-20T12:45:50;97918.09;;;2.93
62932;BMP280;49037;41.898;25.004;2022-12-20T12:51:09;97895.72;;;2.50
62932;BMP280;49037;41.898;25.004;2022-12-20T12:56:30;97899.28;;;2.56
62932;BMP280;49037;41.898;25.004;2022-12-20T13:04:29;97905.25;;;2.56
62932;BMP280;49037;41.898;25.004;2022-12-20T13:06:56;97909.50;;;2.54
62932;BMP280;49037;41.898;25.004;2022-12-20T13:11:57;97898.16;;;2.35
62932;BMP280;49037;41.898;25.004;2022-12-20T13:27:31;97910.97;;;2.25
62932;BMP280;49037;41.898;25.004;2022-12-20T13:43:51;97896.19;;;1.97
62932;BMP280;49037;41.898;25.004;2022-12-20T13:46:24;97892.78;;;1.87
62932;BMP280;49037;41.898;25.004;2022-12-20T13:48:55;97885.84;;;1.81
62932;BMP280;49037;41.898;25.004;2022-12-20T13:51:25;97875.25;;;1.72
62932;BMP280;49037;41.898;25.004;2022-12-20T13:53:53;97890.34;;;1.72
62932;BMP280;49037;41.898;25.004;2022-12-20T13:56:32;97900.13;;;1.71
62932;BMP280;49037;41.898;25.004;2022-12-20T13:59:32;97881.88;;;1.55
62932;BMP280;49037;41.898;25.004;2022-12-20T14:01:59;97883.38;;;1.44
62932;BMP280;49037;41.898;25.004;2022-12-20T14:04:27;97882.16;;;1.36
62932;BMP280;49037;41.898;25.004;2022-12-20T14:07:03;97880.06;;;1.31
62932;BMP280;49037;41.898;25.004;2022-12-20T14:09:36;97878.53;;;1.21
62932;BMP280;49037;41.898;25.004;2022-12-20T14:12:10;97873.53;;;1.14
62932;BMP280;49037;41.898;25.004;2022-12-20T14:14:37;97888.53;;;1.14
62932;BMP280;49037;41.898;25.004;2022-12-20T14:17:25;97882.16;;;1.02
62932;BMP280;49037;41.898;25.004;2022-12-20T14:20:18;97886.47;;;0.96
62932;BMP280;49037;41.898;25.004;2022-12-20T14:22:52;97884.94;;;0.86
62932;BMP280;49037;41.898;25.004;2022-12-20T14:30:56;97878.94;;;0.61
62932;BMP280;49037;41.898;25.004;2022-12-20T14:33:29;97865.81;;;0.49
62932;BMP280;49037;41.898;25.004;2022-12-20T14:35:56;97867.47;;;0.43
62932;BMP280;49037;41.898;25.004;2022-12-20T14:38:39;97879.56;;;0.40
62932;BMP280;49037;41.898;25.004;2022-12-20T14:41:33;97870.88;;;0.31
62932;BMP280;49037;41.898;25.004;2022-12-20T14:46:33;97875.59;;;0.23
62932;BMP280;49037;41.898;25.004;2022-12-20T14:49:17;97855.00;;;0.22
62932;BMP280;49037;41.898;25.004;2022-12-20T14:51:49;97865.09;;;0.23
62932;BMP280;49037;41.898;25.004;2022-12-20T14:54:41;97850.56;;;0.19
62932;BMP280;49037;41.898;25.004;2022-12-20T14:57:10;97846.69;;;0.11
62932;BMP280;49037;41.898;25.004;2022-12-20T14:59:58;97853.72;;;0.14
62932;BMP280;49037;41.898;25.004;2022-12-20T15:13:16;97821.34;;;-0.08
62932;BMP280;49037;41.898;25.004;2022-12-20T15:15:42;97822.50;;;-0.09
62932;BMP280;49037;41.898;25.004;2022-12-20T15:18:15;97821.03;;;-0.10
62932;BMP280;49037;41.898;25.004;2022-12-20T15:20:42;97813.44;;;-0.20
62932;BMP280;49037;41.898;25.004;2022-12-20T15:23:14;97807.91;;;-0.22
62932;BMP280;49037;41.898;25.004;2022-12-20T15:25:40;97818.69;;;-0.20
62932;BMP280;49037;41.898;25.004;2022-12-20T15:28:15;97812.22;;;-0.32
62932;BMP280;49037;41.898;25.004;2022-12-20T15:30:41;97804.78;;;-0.33
62932;BMP280;49037;41.898;25.004;2022-12-20T15:33:13;97810.44;;;-0.35
62932;BMP280;49037;41.898;25.004;2022-12-20T15:35:39;97794.59;;;-0.44
62932;BMP280;49037;41.898;25.004;2022-12-20T15:38:05;97790.19;;;-0.47
62932;BMP280;49037;41.898;25.004;2022-12-20T15:40:30;97806.34;;;-0.48
62932;BMP280;49037;41.898;25.004;2022-12-20T15:42:55;97796.44;;;-0.57
62932;BMP280;49037;41.898;25.004;2022-12-20T15:45:21;97784.81;;;-0.56
62932;BMP280;49037;41.898;25.004;2022-12-20T15:47:47;97795.53;;;-0.50
62932;BMP280;49037;41.898;25.004;2022-12-20T15:50:13;97796.56;;;-0.48
62932;BMP280;49037;41.898;25.004;2022-12-20T15:56:00;97805.69;;;-0.52
62932;BMP280;49037;41.898;25.004;2022-12-20T15:58:26;97794.00;;;-0.64
62932;BMP280;49037;41.898;25.004;2022-12-20T16:00:59;97791.13;;;-0.53
62932;BMP280;49037;41.898;25.004;2022-12-20T16:03:29;97790.06;;;-0.56
62932;BMP280;49037;41.898;25.004;2022-12-20T16:05:55;97802.75;;;-0.54
62932;BMP280;49037;41.898;25.004;2022-12-20T16:08:21;97802.34;;;-0.53
62932;BMP280;49037;41.898;25.004;2022-12-20T16:10:49;97789.50;;;-0.63
62932;BMP280;49037;41.898;25.004;2022-12-20T16:13:21;97798.53;;;-0.64
62932;BMP280;49037;41.898;25.004;2022-12-20T16:15:46;97795.19;;;-0.64
62932;BMP280;49037;41.898;25.004;2022-12-20T16:18:12;97791.16;;;-0.69
62932;BMP280;49037;41.898;25.004;2022-12-20T16:20:37;97805.75;;;-0.68
62932;BMP280;49037;41.898;25.004;2022-12-20T16:23:21;97804.78;;;-0.74
62932;BMP280;49037;41.898;25.004;2022-12-20T16:25:47;97809.50;;;-0.69
62932;BMP280;49037;41.898;25.004;2022-12-20T16:28:12;97804.47;;;-0.76
62932;BMP280;49037;41.898;25.004;2022-12-20T16:30:38;97793.56;;;-0.74